Terminal Aerodrome Forecast
Issued by NWS

Home | Current Version | Previous Version | Text Only | Print | Product List | Glossary On
Versions: 1 2 3 4 5 6 7 8 9 10 11 12 13 14 15 16
000
FTUS45 KBOI 251722
TAFBKE
TAF
KBKE 251722Z 2518/2618 33005KT P6SM SCT070
     FM252200 34006KT P6SM VCSH OVC060
     FM260400 VRB04KT P6SM SCT150
     FM261400 14008KT P6SM SCT040 BKN060=

USA.gov is the U.S. government's official web portal to all federal, state and local government web resources and services.